createdAt,value
2018-02-24T00:01:46.940Z,42.15
2018-02-24T00:04:13.281Z,41.67
2018-02-24T00:06:39.588Z,40.58
2018-02-24T00:09:06.263Z,43.85
2018-02-24T00:11:32.518Z,46.55
2018-02-24T00:13:58.850Z,38.80
2018-02-24T00:16:25.106Z,37.70
2018-02-24T00:18:51.400Z,36.25
2018-02-24T00:21:17.653Z,42.20
2018-02-24T00:23:43.994Z,39.00
2018-02-24T00:26:10.233Z,48.42
2018-02-24T00:28:36.497Z,41.50
2018-02-24T00:31:02.858Z,42.50
2018-02-24T00:33:29.137Z,37.72
2018-02-24T00:35:55.529Z,41.60
2018-02-24T00:38:22.146Z,38.90
2018-02-24T00:40:48.480Z,44.67
2018-02-24T00:43:14.799Z,45.20
2018-02-24T00:45:41.122Z,39.10
2018-02-24T00:48:07.382Z,38.55
2018-02-24T00:50:33.976Z,37.42
2018-02-24T00:53:00.325Z,40.97
2018-02-24T00:55:26.626Z,40.47
2018-02-24T00:57:53.288Z,40.12
2018-02-24T01:00:19.573Z,40.75
2018-02-24T01:02:45.863Z,41.20
2018-02-24T01:05:12.155Z,45.40
2018-02-24T01:07:38.416Z,41.28
2018-02-24T01:10:05.078Z,42.62
2018-02-24T01:12:31.397Z,39.63
2018-02-24T01:14:57.664Z,47.20
2018-02-24T01:17:23.894Z,40.22
2018-02-24T01:19:50.155Z,36.33
2018-02-24T01:22:16.375Z,38.78
2018-02-24T01:24:42.652Z,41.50
2018-02-24T01:27:08.932Z,37.90
2018-02-24T01:29:35.220Z,41.15
2018-02-24T01:32:01.490Z,38.50
2018-02-24T01:34:27.752Z,42.47
2018-02-24T01:36:54.008Z,34.60
2018-02-24T01:39:20.336Z,41.70
2018-02-24T01:41:46.614Z,40.58
2018-02-24T01:44:12.954Z,39.55
2018-02-24T01:46:39.306Z,37.20
2018-02-24T01:49:05.585Z,45.20
2018-02-24T01:51:31.864Z,40.30
2018-02-24T01:53:58.127Z,37.35
2018-02-24T01:56:24.398Z,37.60
2018-02-24T01:58:50.660Z,41.72
2018-02-24T02:01:17.279Z,41.78
2018-02-24T02:03:43.797Z,40.42
2018-02-24T02:06:10.084Z,44.17
2018-02-24T02:08:36.371Z,40.42
2018-02-24T02:11:02.645Z,38.22
2018-02-24T02:13:28.917Z,41.83
2018-02-24T02:15:55.214Z,43.53
2018-02-24T02:18:21.435Z,38.47
2018-02-24T02:20:47.713Z,41.03
2018-02-24T02:23:14.131Z,41.37
2018-02-24T02:25:40.753Z,37.22
2018-02-24T02:28:07.022Z,40.72
2018-02-24T02:30:33.263Z,40.70
2018-02-24T02:32:59.568Z,36.90
2018-02-24T02:35:25.834Z,38.30
2018-02-24T02:37:52.132Z,44.88
2018-02-24T02:40:18.392Z,40.75
2018-02-24T02:42:46.438Z,41.67
2018-02-24T02:45:12.734Z,36.92
2018-02-24T02:47:38.999Z,39.70
2018-02-24T02:50:05.316Z,39.42
2018-02-24T02:52:31.583Z,39.85
2018-02-24T02:54:57.833Z,40.83
2018-02-24T02:57:24.549Z,41.15
2018-02-24T02:59:50.766Z,32.60
2018-02-24T03:02:17.423Z,38.50
2018-02-24T03:04:44.424Z,36.05
2018-02-24T03:07:10.651Z,36.08
2018-02-24T03:09:36.934Z,41.50
2018-02-24T03:12:03.172Z,38.67
2018-02-24T03:14:29.425Z,37.55
2018-02-24T03:16:55.699Z,35.17
2018-02-24T03:19:22.359Z,36.83
2018-02-24T03:21:48.607Z,38.85
2018-02-24T03:24:15.937Z,39.58
2018-02-24T03:26:42.184Z,40.30
2018-02-24T03:29:08.437Z,42.13
2018-02-24T03:31:34.716Z,38.00
2018-02-24T03:34:01.379Z,34.95
2018-02-24T03:36:27.984Z,34.85
2018-02-24T03:38:54.237Z,40.33
2018-02-24T03:41:20.553Z,42.10
2018-02-24T03:43:46.896Z,38.03
2018-02-24T03:46:19.100Z,39.72
2018-02-24T03:48:45.827Z,39.50
2018-02-24T03:51:12.116Z,38.65
2018-02-24T03:53:38.379Z,40.03
2018-02-24T03:56:04.763Z,38.88
2018-02-24T03:58:30.971Z,38.83
2018-02-24T04:00:57.247Z,39.83
2018-02-24T04:03:23.517Z,42.85
2018-02-24T04:05:49.818Z,37.70
2018-02-24T04:08:16.149Z,39.97
2018-02-24T04:10:42.397Z,39.50
2018-02-24T04:13:08.688Z,43.55
2018-02-24T04:15:34.990Z,43.67
2018-02-24T04:18:01.263Z,38.30
2018-02-24T04:20:27.899Z,39.75
2018-02-24T04:22:54.130Z,43.67
2018-02-24T04:25:20.355Z,43.42
2018-02-24T04:27:47.121Z,45.28
2018-02-24T04:30:13.392Z,40.00
2018-02-24T04:32:39.666Z,43.13
2018-02-24T04:35:05.967Z,50.65
2018-02-24T04:37:32.208Z,42.13
2018-02-24T04:39:58.468Z,39.65
2018-02-24T04:42:24.739Z,46.03
2018-02-24T04:44:51.349Z,45.35
2018-02-24T04:47:17.666Z,38.42
2018-02-24T04:49:43.941Z,46.28
2018-02-24T04:52:10.440Z,45.38
2018-02-24T04:54:37.542Z,43.75
2018-02-24T04:57:04.178Z,39.65
2018-02-24T04:59:30.446Z,47.97
2018-02-24T05:01:56.703Z,45.15
2018-02-24T05:04:22.997Z,45.67
2018-02-24T05:06:49.300Z,40.70
2018-02-24T05:09:16.564Z,48.38
2018-02-24T05:11:42.772Z,45.03
2018-02-24T05:14:09.039Z,47.33
2018-02-24T05:16:35.302Z,45.30
2018-02-24T05:19:01.564Z,41.30
2018-02-24T05:21:27.818Z,46.28
2018-02-24T05:23:54.056Z,43.17
2018-02-24T05:26:20.333Z,48.03
2018-02-24T05:28:47.075Z,47.33
2018-02-24T05:31:13.343Z,48.47
2018-02-24T05:33:39.592Z,46.88
2018-02-24T05:36:05.913Z,45.92
2018-02-24T05:38:32.165Z,45.63
2018-02-24T05:40:58.441Z,49.00
2018-02-24T05:43:24.749Z,40.28
2018-02-24T05:45:51.021Z,48.15
2018-02-24T05:48:17.716Z,46.03
2018-02-24T05:50:44.053Z,45.20
2018-02-24T05:53:10.311Z,43.35
2018-02-24T05:55:36.557Z,48.33
2018-02-24T05:58:02.809Z,47.35
2018-02-24T06:00:29.449Z,46.30
2018-02-24T06:02:56.160Z,44.42
2018-02-24T06:05:23.218Z,48.05
2018-02-24T06:07:49.489Z,52.97
2018-02-24T06:10:15.905Z,43.83
2018-02-24T06:12:42.162Z,47.50
2018-02-24T06:15:08.780Z,46.47
2018-02-24T06:17:35.011Z,42.65
2018-02-24T06:20:01.284Z,53.10
2018-02-24T06:22:27.544Z,47.47
2018-02-24T06:24:53.846Z,48.17
2018-02-24T06:27:20.514Z,52.75
2018-02-24T06:29:46.927Z,47.40
2018-02-24T06:32:13.638Z,42.45
2018-02-24T06:34:39.910Z,45.92
2018-02-24T06:37:06.444Z,46.67
2018-02-24T06:39:32.751Z,47.62
2018-02-24T06:41:58.986Z,45.55
2018-02-24T06:44:25.241Z,47.75
2018-02-24T06:46:51.490Z,45.83
2018-02-24T06:49:18.159Z,47.15
2018-02-24T06:51:44.424Z,42.78
2018-02-24T06:54:10.712Z,47.40
2018-02-24T06:56:37.007Z,46.72
2018-02-24T06:59:03.300Z,51.40
2018-02-24T07:01:29.577Z,44.97
2018-02-24T07:03:56.134Z,44.90
2018-02-24T07:06:22.367Z,49.20
2018-02-24T07:08:48.638Z,46.08
2018-02-24T07:11:14.903Z,44.97
2018-02-24T07:13:41.148Z,48.53
2018-02-24T07:16:07.406Z,40.47
2018-02-24T07:18:33.667Z,42.22
2018-02-24T07:21:00.315Z,50.22
2018-02-24T07:23:26.599Z,41.28
2018-02-24T07:25:52.907Z,48.00
2018-02-24T07:28:19.163Z,46.65
2018-02-24T07:30:45.450Z,43.75
2018-02-24T07:33:11.712Z,46.00
2018-02-24T07:35:37.987Z,46.42
2018-02-24T07:38:04.256Z,45.45
2018-02-24T07:40:30.900Z,39.95
2018-02-24T07:42:57.521Z,44.05
2018-02-24T07:45:23.759Z,44.30
2018-02-24T07:47:50.051Z,42.30
2018-02-24T07:50:16.448Z,41.72
2018-02-24T07:52:43.119Z,45.35
2018-02-24T07:55:09.391Z,43.70
2018-02-24T07:57:35.653Z,43.85
2018-02-24T08:00:03.184Z,44.15
2018-02-24T08:02:29.500Z,43.47
2018-02-24T08:04:55.827Z,44.95
2018-02-24T08:07:22.129Z,42.28
2018-02-24T08:09:48.857Z,35.25
2018-02-24T08:12:15.116Z,44.63
2018-02-24T08:14:41.424Z,44.67
2018-02-24T08:17:07.725Z,44.65
2018-02-24T08:19:33.974Z,41.92
2018-02-24T08:22:00.233Z,43.20
2018-02-24T08:24:26.574Z,41.78
2018-02-24T08:26:52.860Z,45.08
2018-02-24T08:29:19.459Z,40.95
2018-02-24T08:31:45.752Z,38.85
2018-02-24T08:34:12.027Z,47.00
2018-02-24T08:36:38.246Z,39.70
2018-02-24T08:39:04.503Z,42.28
2018-02-24T08:41:30.761Z,40.47
2018-02-24T08:43:57.042Z,45.50
2018-02-24T08:46:23.329Z,43.65
2018-02-24T08:48:49.665Z,43.65
2018-02-24T08:51:16.974Z,40.42
2018-02-24T08:53:43.528Z,41.25
2018-02-24T08:56:09.765Z,39.50
2018-02-24T08:58:36.090Z,38.40
2018-02-24T09:01:02.632Z,38.72
2018-02-24T09:03:28.892Z,40.60
2018-02-24T09:05:55.538Z,39.45
2018-02-24T09:08:22.464Z,34.55
2018-02-24T09:10:48.692Z,35.83
2018-02-24T09:13:14.969Z,35.67
2018-02-24T09:15:41.646Z,37.40
2018-02-24T09:18:07.952Z,31.00
2018-02-24T09:20:34.560Z,35.50
2018-02-24T09:23:01.123Z,33.03
2018-02-24T09:25:27.401Z,33.45
2018-02-24T09:27:53.644Z,36.25
2018-02-24T09:30:19.934Z,35.78
2018-02-24T09:32:47.529Z,32.13
2018-02-24T09:35:13.897Z,32.80
2018-02-24T09:37:40.469Z,31.87
2018-02-24T09:40:07.128Z,30.58
2018-02-24T09:42:33.370Z,32.63
2018-02-24T09:44:59.655Z,27.95
2018-02-24T09:47:25.922Z,34.60
2018-02-24T09:49:52.555Z,33.03
2018-02-24T09:52:18.879Z,31.10
2018-02-24T09:54:45.739Z,32.63
2018-02-24T09:57:12.089Z,28.08
2018-02-24T09:59:38.787Z,28.08
2018-02-24T10:02:05.077Z,33.63
2018-02-24T10:04:31.444Z,27.30
2018-02-24T10:06:58.065Z,32.70
2018-02-24T10:09:24.698Z,26.08
2018-02-24T10:11:51.343Z,26.40
2018-02-24T10:14:17.986Z,27.90
2018-02-24T10:16:44.591Z,27.40
2018-02-24T10:19:10.894Z,29.02
2018-02-24T10:21:37.511Z,35.40
2018-02-24T10:24:04.200Z,29.17
2018-02-24T10:26:30.524Z,25.65
2018-02-24T10:28:56.788Z,27.10
2018-02-24T10:31:23.140Z,26.12
2018-02-24T10:33:49.446Z,25.35
2018-02-24T10:36:16.485Z,23.30
2018-02-24T10:38:42.755Z,26.00
2018-02-24T10:41:09.080Z,24.87
2018-02-24T10:43:35.393Z,25.25
2018-02-24T10:46:01.700Z,26.07
2018-02-24T10:48:28.338Z,24.20
2018-02-24T10:50:54.902Z,26.03
2018-02-24T10:53:21.177Z,24.47
2018-02-24T10:55:47.562Z,24.77
2018-02-24T10:58:13.898Z,28.87
2018-02-24T11:00:40.185Z,24.53
2018-02-24T11:03:06.625Z,24.93
2018-02-24T11:05:33.366Z,26.20
2018-02-24T11:08:03.320Z,26.63
2018-02-24T11:10:29.605Z,25.00
2018-02-24T11:12:55.887Z,24.63
2018-02-24T11:15:22.176Z,26.60
2018-02-24T11:17:48.539Z,25.07
2018-02-24T11:20:15.643Z,24.10
2018-02-24T11:22:41.979Z,23.53
2018-02-24T11:25:08.784Z,23.47
2018-02-24T11:27:35.058Z,25.23
2018-02-24T11:30:01.433Z,24.60
2018-02-24T11:32:27.776Z,23.83
2018-02-24T11:34:54.090Z,24.50
2018-02-24T11:37:20.399Z,23.17
2018-02-24T11:39:47.598Z,25.57
2018-02-24T11:42:13.870Z,24.10
2018-02-24T11:44:40.149Z,22.80
2018-02-24T11:47:06.484Z,25.30
2018-02-24T11:49:32.805Z,24.57
2018-02-24T11:51:59.135Z,23.87
2018-02-24T11:54:25.852Z,23.77
2018-02-24T11:56:52.147Z,22.87
2018-02-24T11:59:18.495Z,22.57
2018-02-24T12:01:44.795Z,24.70
2018-02-24T12:04:11.152Z,21.93
2018-02-24T12:06:37.522Z,22.53
2018-02-24T12:09:03.892Z,24.07
2018-02-24T12:11:30.545Z,24.10
2018-02-24T12:13:59.086Z,23.00
2018-02-24T12:16:25.388Z,23.47
2018-02-24T12:18:51.677Z,24.40
2018-02-24T12:21:18.648Z,23.17
2018-02-24T12:23:45.303Z,23.40
2018-02-24T12:26:11.997Z,23.30
2018-02-24T12:28:38.242Z,23.80
2018-02-24T12:31:06.113Z,22.13
2018-02-24T12:33:32.399Z,23.23
2018-02-24T12:35:58.686Z,23.63
2018-02-24T12:38:24.936Z,22.73
2018-02-24T12:40:51.256Z,23.43
2018-02-24T12:43:18.487Z,22.17
2018-02-24T12:45:45.067Z,22.27
2018-02-24T12:48:11.370Z,22.90
2018-02-24T12:50:37.624Z,22.77
2018-02-24T12:53:03.931Z,21.97
2018-02-24T12:55:30.268Z,23.13
2018-02-24T12:57:57.174Z,20.10
2018-02-24T13:00:23.886Z,19.83
2018-02-24T13:02:50.184Z,20.37
2018-02-24T13:05:17.501Z,20.00
2018-02-24T13:07:44.074Z,19.40
2018-02-24T13:10:10.376Z,20.88
2018-02-24T13:12:37.076Z,19.00
2018-02-24T13:15:03.675Z,22.05
2018-02-24T13:17:30.288Z,19.23
2018-02-24T13:19:56.693Z,21.15
2018-02-24T13:22:23.759Z,20.05
2018-02-24T13:24:51.133Z,21.95
2018-02-24T13:27:17.424Z,17.23
2018-02-24T13:29:44.054Z,19.00
2018-02-24T13:32:11.067Z,20.52
2018-02-24T13:34:37.329Z,21.25
2018-02-24T13:37:03.607Z,20.50
2018-02-24T13:39:29.866Z,24.55
2018-02-24T13:41:56.117Z,19.83
2018-02-24T13:44:22.428Z,20.25
2018-02-24T13:46:48.755Z,21.60
2018-02-24T13:49:15.037Z,21.30
2018-02-24T13:51:41.299Z,21.30
2018-02-24T13:54:07.960Z,19.08
2018-02-24T13:56:34.199Z,21.50
2018-02-24T13:59:00.528Z,21.17
2018-02-24T14:01:26.779Z,21.10
2018-02-24T14:03:53.883Z,18.48
2018-02-24T14:06:20.919Z,16.95
2018-02-24T14:08:47.238Z,22.30
2018-02-24T14:11:14.624Z,19.67
2018-02-24T14:13:40.863Z,20.33
2018-02-24T14:16:07.144Z,22.00
2018-02-24T14:18:33.434Z,21.60
2018-02-24T14:20:59.710Z,22.60
2018-02-24T14:23:26.057Z,20.17
2018-02-24T14:25:52.678Z,18.10
2018-02-24T14:28:19.070Z,17.15
2018-02-24T14:30:45.370Z,16.90
2018-02-24T14:33:11.675Z,19.92
2018-02-24T14:35:38.323Z,19.42
2018-02-24T14:38:05.413Z,17.50
2018-02-24T14:40:32.406Z,18.50
2018-02-24T14:42:58.666Z,15.00
2018-02-24T14:45:25.274Z,16.25
2018-02-24T14:47:51.551Z,19.35
2018-02-24T14:50:17.894Z,16.70
2018-02-24T14:52:44.203Z,17.40
2018-02-24T14:55:15.369Z,18.27
2018-02-24T14:57:41.626Z,19.52
2018-02-24T15:00:10.921Z,12.40
2018-02-24T15:02:37.221Z,17.58
2018-02-24T15:05:03.503Z,16.12
2018-02-24T15:07:29.802Z,15.40
2018-02-24T15:09:56.512Z,15.70
2018-02-24T15:12:22.798Z,16.17
2018-02-24T15:14:49.173Z,17.35
2018-02-24T15:17:15.493Z,15.05
2018-02-24T15:19:41.772Z,18.08
2018-02-24T15:22:08.091Z,15.48
2018-02-24T15:24:34.421Z,16.27
2018-02-24T15:27:00.689Z,16.23
2018-02-24T15:29:26.959Z,20.52
2018-02-24T15:31:53.242Z,16.48
2018-02-24T15:34:19.541Z,15.15
2018-02-24T15:36:47.106Z,15.68
2018-02-24T15:39:13.425Z,12.80
2018-02-24T15:41:39.691Z,16.45
2018-02-24T15:44:05.944Z,17.52
2018-02-24T15:46:32.226Z,15.50
2018-02-24T15:48:58.552Z,19.37
2018-02-24T15:51:24.834Z,17.08
2018-02-24T15:53:51.114Z,15.82
2018-02-24T15:56:17.480Z,14.20
2018-02-24T15:58:43.791Z,18.05
2018-02-24T16:01:10.478Z,15.07
2018-02-24T16:03:36.742Z,17.08
2018-02-24T16:06:03.029Z,18.25
2018-02-24T16:08:29.316Z,18.45
2018-02-24T16:10:55.651Z,16.73
2018-02-24T16:13:21.980Z,17.02
2018-02-24T16:15:48.457Z,14.90
2018-02-24T16:18:15.080Z,16.62
2018-02-24T16:20:41.357Z,13.70
2018-02-24T16:23:07.624Z,18.80
2018-02-24T16:25:33.911Z,15.98
2018-02-24T16:28:00.584Z,16.12
2018-02-24T16:30:26.868Z,20.92
2018-02-24T16:32:53.171Z,20.60
2018-02-24T16:35:19.581Z,16.20
2018-02-24T16:37:45.868Z,17.33
2018-02-24T16:40:12.568Z,18.08
2018-02-24T16:42:38.856Z,16.83
2018-02-24T16:45:05.154Z,14.95
2018-02-24T16:47:31.420Z,14.18
2018-02-24T16:49:57.712Z,17.73
2018-02-24T16:52:23.990Z,19.27
2018-02-24T16:54:50.275Z,16.55
2018-02-24T16:57:16.717Z,17.95
2018-02-24T16:59:42.998Z,15.10
2018-02-24T17:02:10.854Z,21.12
2018-02-24T17:04:37.128Z,18.48
2018-02-24T17:07:05.188Z,17.60
2018-02-24T17:09:31.435Z,19.02
2018-02-24T17:11:57.713Z,16.95
2018-02-24T17:14:23.961Z,16.95
2018-02-24T17:16:50.229Z,17.77
2018-02-24T17:19:17.451Z,18.80
2018-02-24T17:21:43.784Z,16.90
2018-02-24T17:24:10.026Z,16.90
2018-02-24T17:26:36.370Z,18.58
2018-02-24T17:29:02.974Z,18.58
2018-02-24T17:31:29.224Z,16.77
2018-02-24T17:33:55.492Z,17.87
2018-02-24T17:36:21.765Z,18.25
2018-02-24T17:38:48.511Z,17.80
2018-02-24T17:41:14.791Z,15.43
2018-02-24T17:43:41.088Z,18.00
2018-02-24T17:46:07.792Z,21.65
2018-02-24T17:48:34.083Z,13.95
2018-02-24T17:51:00.415Z,15.10
2018-02-24T17:53:26.700Z,17.50
2018-02-24T17:55:52.984Z,14.57
2018-02-24T17:58:19.661Z,15.50
2018-02-24T18:00:45.936Z,13.73
2018-02-24T18:03:12.286Z,15.18
2018-02-24T18:05:38.978Z,11.98
2018-02-24T18:08:05.232Z,14.65
2018-02-24T18:10:31.483Z,12.60
2018-02-24T18:12:57.827Z,10.98
2018-02-24T18:15:24.151Z,14.48
2018-02-24T18:17:50.519Z,14.10
2018-02-24T18:20:18.257Z,11.98
2018-02-24T18:22:44.556Z,11.85
2018-02-24T18:25:10.867Z,11.88
2018-02-24T18:27:37.490Z,10.45
2018-02-24T18:30:04.162Z,10.70
2018-02-24T18:32:30.497Z,14.30
2018-02-24T18:34:56.819Z,11.57
2018-02-24T18:37:23.547Z,12.07
2018-02-24T18:39:50.310Z,11.10
2018-02-24T18:42:17.476Z,15.05
2018-02-24T18:44:43.748Z,13.57
2018-02-24T18:47:10.216Z,11.88
2018-02-24T18:49:37.275Z,14.32
2018-02-24T18:52:03.649Z,11.27
2018-02-24T18:54:29.915Z,14.07
2018-02-24T18:56:56.360Z,13.65
2018-02-24T18:59:23.674Z,12.37
2018-02-24T19:01:50.356Z,14.05
2018-02-24T19:04:16.990Z,11.02
2018-02-24T19:06:43.253Z,13.38
2018-02-24T19:09:09.522Z,13.15
2018-02-24T19:11:36.495Z,13.73
2018-02-24T19:14:02.847Z,10.90
2018-02-24T19:16:29.181Z,10.27
2018-02-24T19:18:56.430Z,11.52
2018-02-24T19:21:22.711Z,12.35
2018-02-24T19:23:49.045Z,11.50
2018-02-24T19:26:15.358Z,13.43
2018-02-24T19:28:41.692Z,13.38
2018-02-24T19:31:08.050Z,12.98
2018-02-24T19:33:35.284Z,17.25
2018-02-24T19:36:01.604Z,13.65
2018-02-24T19:38:27.920Z,13.18
2018-02-24T19:40:54.630Z,14.23
2018-02-24T19:43:20.896Z,12.77
2018-02-24T19:45:47.666Z,11.30
2018-02-24T19:48:13.994Z,14.43
2018-02-24T19:50:40.261Z,14.25
2018-02-24T19:53:06.503Z,12.43
2018-02-24T19:57:29.946Z,13.45
2018-02-24T19:59:56.271Z,10.57
2018-02-24T20:02:22.506Z,14.23
2018-02-24T20:04:48.818Z,13.70
2018-02-24T20:07:15.309Z,11.10
2018-02-24T20:09:42.005Z,12.60
2018-02-24T20:12:08.310Z,11.48
2018-02-24T20:14:34.570Z,11.40
2018-02-24T20:17:00.774Z,13.18
2018-02-24T20:19:27.065Z,8.82
2018-02-24T20:21:53.680Z,12.95
2018-02-24T20:24:19.938Z,11.50
2018-02-24T20:26:46.611Z,11.75
2018-02-24T20:29:13.407Z,10.88
2018-02-24T20:31:40.004Z,15.50
2018-02-24T20:34:06.779Z,13.75
2018-02-24T20:36:33.191Z,13.10
2018-02-24T20:38:59.437Z,10.57
2018-02-24T20:41:26.080Z,13.43
2018-02-24T20:43:52.709Z,10.63
2018-02-24T20:46:19.221Z,14.87
2018-02-24T20:48:45.553Z,10.45
2018-02-24T20:51:11.844Z,11.75
2018-02-24T20:53:38.551Z,14.25
2018-02-24T20:56:05.190Z,11.32
2018-02-24T20:58:33.081Z,15.57
2018-02-24T21:00:59.464Z,14.27
2018-02-24T21:03:25.857Z,16.10
2018-02-24T21:05:52.263Z,12.88
2018-02-24T21:08:18.898Z,13.55
2018-02-24T21:10:45.700Z,12.18
2018-02-24T21:13:12.014Z,16.08
2018-02-24T21:15:39.182Z,14.18
2018-02-24T21:18:05.423Z,10.95
2018-02-24T21:20:31.663Z,10.65
2018-02-24T21:22:57.935Z,11.95
2018-02-24T21:25:24.193Z,9.88
2018-02-24T21:27:50.495Z,10.68
2018-02-24T21:30:16.793Z,10.98
2018-02-24T21:32:43.494Z,11.18
2018-02-24T21:35:09.791Z,11.15
2018-02-24T21:37:36.053Z,12.70
2018-02-24T21:40:02.289Z,9.35
2018-02-24T21:42:28.560Z,11.82
2018-02-24T21:44:54.834Z,9.57
2018-02-24T21:47:21.054Z,13.70
2018-02-24T21:49:47.305Z,11.30
2018-02-24T21:52:13.555Z,14.87
2018-02-24T21:54:40.126Z,12.68
2018-02-24T21:57:06.391Z,9.18
2018-02-24T21:59:32.649Z,11.90
2018-02-24T22:01:59.281Z,13.25
2018-02-24T22:04:25.934Z,7.50
2018-02-24T22:06:52.515Z,11.15
2018-02-24T22:09:18.742Z,11.88
2018-02-24T22:11:45.216Z,10.95
2018-02-24T22:14:11.810Z,10.13
2018-02-24T22:16:38.029Z,13.70
2018-02-24T22:19:04.282Z,12.32
2018-02-24T22:21:30.525Z,9.70
2018-02-24T22:23:56.745Z,12.35
2018-02-24T22:26:22.962Z,10.80
2018-02-24T22:28:49.236Z,10.48
2018-02-24T22:31:15.858Z,10.57
2018-02-24T22:33:42.450Z,9.32
2018-02-24T22:36:08.716Z,11.98
2018-02-24T22:38:34.916Z,10.02
2018-02-24T22:41:01.147Z,8.65
2018-02-24T22:43:27.452Z,8.75
2018-02-24T22:45:53.664Z,12.05
2018-02-24T22:48:26.046Z,9.48
2018-02-24T22:50:52.288Z,13.85
2018-02-24T22:53:18.490Z,10.43
2018-02-24T22:55:44.769Z,8.43
2018-02-24T22:58:10.994Z,9.95
2018-02-24T23:00:37.207Z,7.35
2018-02-24T23:03:03.416Z,9.27
2018-02-24T23:05:29.627Z,11.10
2018-02-24T23:07:55.870Z,7.82
2018-02-24T23:10:22.543Z,8.15
2018-02-24T23:12:48.743Z,10.25
2018-02-24T23:15:14.976Z,8.43
2018-02-24T23:17:41.215Z,10.00
2018-02-24T23:20:07.448Z,8.70
2018-02-24T23:22:33.656Z,10.10
2018-02-24T23:24:59.895Z,11.18
2018-02-24T23:27:26.182Z,7.85
2018-02-24T23:29:52.777Z,10.90
2018-02-24T23:32:19.014Z,10.38
2018-02-24T23:34:45.231Z,8.55
2018-02-24T23:37:11.431Z,10.13
2018-02-24T23:39:37.689Z,7.25
2018-02-24T23:42:03.968Z,9.02
2018-02-24T23:44:30.163Z,9.52
2018-02-24T23:46:56.378Z,7.75
2018-02-24T23:49:22.576Z,10.63
2018-02-24T23:51:48.791Z,9.50
2018-02-24T23:54:15.006Z,8.95
2018-02-24T23:56:41.559Z,8.80
2018-02-24T23:59:07.770Z,7.15
